sensor_id;sensor_type;location;lat;lon;timestamp;P1;durP1;ratioP1;P2;durP2;ratioP2
769;SDS011;368;48.698;9.116;2022-12-18T00:01:59;44.55;;;30.92;;
769;SDS011;368;48.698;9.116;2022-12-18T00:04:26;40.85;;;29.23;;
769;SDS011;368;48.698;9.116;2022-12-18T00:06:55;40.78;;;29.88;;
769;SDS011;368;48.698;9.116;2022-12-18T00:09:22;48.65;;;32.25;;
769;SDS011;368;48.698;9.116;2022-12-18T00:11:49;48.08;;;33.15;;
769;SDS011;368;48.698;9.116;2022-12-18T00:14:16;46.83;;;30.10;;
769;SDS011;368;48.698;9.116;2022-12-18T00:16:43;44.50;;;31.08;;
769;SDS011;368;48.698;9.116;2022-12-18T00:19:11;37.22;;;27.30;;
769;SDS011;368;48.698;9.116;2022-12-18T00:21:39;42.50;;;28.10;;
769;SDS011;368;48.698;9.116;2022-12-18T00:24:07;40.65;;;29.00;;
769;SDS011;368;48.698;9.116;2022-12-18T00:26:35;37.83;;;27.73;;
769;SDS011;368;48.698;9.116;2022-12-18T00:29:04;39.30;;;27.55;;
769;SDS011;368;48.698;9.116;2022-12-18T00:31:34;39.10;;;25.42;;
769;SDS011;368;48.698;9.116;2022-12-18T00:34:01;41.42;;;27.98;;
769;SDS011;368;48.698;9.116;2022-12-18T00:36:29;40.13;;;29.45;;
769;SDS011;368;48.698;9.116;2022-12-18T00:38:58;45.53;;;29.77;;
769;SDS011;368;48.698;9.116;2022-12-18T00:41:27;37.60;;;26.92;;
769;SDS011;368;48.698;9.116;2022-12-18T00:44:12;38.83;;;28.35;;
769;SDS011;368;48.698;9.116;2022-12-18T00:46:40;39.03;;;27.33;;
769;SDS011;368;48.698;9.116;2022-12-18T00:49:07;43.83;;;27.70;;
769;SDS011;368;48.698;9.116;2022-12-18T00:51:34;44.13;;;28.15;;
769;SDS011;368;48.698;9.116;2022-12-18T00:54:01;37.33;;;27.17;;
769;SDS011;368;48.698;9.116;2022-12-18T00:56:29;38.53;;;26.25;;
769;SDS011;368;48.698;9.116;2022-12-18T00:58:56;41.50;;;28.00;;
769;SDS011;368;48.698;9.116;2022-12-18T01:01:23;43.40;;;28.38;;
769;SDS011;368;48.698;9.116;2022-12-18T01:03:51;46.97;;;31.70;;
769;SDS011;368;48.698;9.116;2022-12-18T01:06:18;44.97;;;31.15;;
769;SDS011;368;48.698;9.116;2022-12-18T01:08:45;45.75;;;28.92;;
769;SDS011;368;48.698;9.116;2022-12-18T01:11:12;41.95;;;28.63;;
769;SDS011;368;48.698;9.116;2022-12-18T01:13:42;42.80;;;30.42;;
769;SDS011;368;48.698;9.116;2022-12-18T01:16:11;36.90;;;27.80;;
769;SDS011;368;48.698;9.116;2022-12-18T01:18:38;40.13;;;28.20;;
769;SDS011;368;48.698;9.116;2022-12-18T01:21:06;39.65;;;25.58;;
769;SDS011;368;48.698;9.116;2022-12-18T01:23:33;37.00;;;27.65;;
769;SDS011;368;48.698;9.116;2022-12-18T01:26:03;42.47;;;25.98;;
769;SDS011;368;48.698;9.116;2022-12-18T01:28:31;39.15;;;28.63;;
769;SDS011;368;48.698;9.116;2022-12-18T01:31:09;40.33;;;27.20;;
769;SDS011;368;48.698;9.116;2022-12-18T01:33:41;41.50;;;27.20;;
769;SDS011;368;48.698;9.116;2022-12-18T01:36:08;36.22;;;26.42;;
769;SDS011;368;48.698;9.116;2022-12-18T01:38:40;37.95;;;26.20;;
769;SDS011;368;48.698;9.116;2022-12-18T01:41:07;35.58;;;24.73;;
769;SDS011;368;48.698;9.116;2022-12-18T01:43:42;36.65;;;26.73;;
769;SDS011;368;48.698;9.116;2022-12-18T01:46:12;37.45;;;26.85;;
769;SDS011;368;48.698;9.116;2022-12-18T01:48:39;35.33;;;25.48;;
769;SDS011;368;48.698;9.116;2022-12-18T01:51:08;34.72;;;26.10;;
769;SDS011;368;48.698;9.116;2022-12-18T01:53:37;36.47;;;25.38;;
769;SDS011;368;48.698;9.116;2022-12-18T01:56:06;36.75;;;25.77;;
769;SDS011;368;48.698;9.116;2022-12-18T01:58:35;36.58;;;24.08;;
769;SDS011;368;48.698;9.116;2022-12-18T02:01:07;38.22;;;24.98;;
769;SDS011;368;48.698;9.116;2022-12-18T02:03:36;38.80;;;26.60;;
769;SDS011;368;48.698;9.116;2022-12-18T02:06:05;36.75;;;23.42;;
769;SDS011;368;48.698;9.116;2022-12-18T02:08:37;38.20;;;25.17;;
769;SDS011;368;48.698;9.116;2022-12-18T02:11:11;37.78;;;26.00;;
769;SDS011;368;48.698;9.116;2022-12-18T02:13:49;36.55;;;24.60;;
769;SDS011;368;48.698;9.116;2022-12-18T02:16:23;34.42;;;24.30;;
769;SDS011;368;48.698;9.116;2022-12-18T02:18:56;35.55;;;24.55;;
769;SDS011;368;48.698;9.116;2022-12-18T02:21:29;34.92;;;25.05;;
769;SDS011;368;48.698;9.116;2022-12-18T02:24:03;37.88;;;25.35;;
769;SDS011;368;48.698;9.116;2022-12-18T02:26:45;35.97;;;26.13;;
769;SDS011;368;48.698;9.116;2022-12-18T02:29:16;35.28;;;23.45;;
769;SDS011;368;48.698;9.116;2022-12-18T02:31:47;36.60;;;24.27;;
769;SDS011;368;48.698;9.116;2022-12-18T02:34:17;33.88;;;24.75;;
769;SDS011;368;48.698;9.116;2022-12-18T02:36:45;35.28;;;24.33;;
769;SDS011;368;48.698;9.116;2022-12-18T02:39:14;36.53;;;23.45;;
769;SDS011;368;48.698;9.116;2022-12-18T02:41:42;35.15;;;23.75;;
769;SDS011;368;48.698;9.116;2022-12-18T02:44:12;36.28;;;24.73;;
769;SDS011;368;48.698;9.116;2022-12-18T02:46:40;44.45;;;27.45;;
769;SDS011;368;48.698;9.116;2022-12-18T02:49:12;42.03;;;24.30;;
769;SDS011;368;48.698;9.116;2022-12-18T02:51:50;41.35;;;26.77;;
769;SDS011;368;48.698;9.116;2022-12-18T02:57:24;40.90;;;26.65;;
769;SDS011;368;48.698;9.116;2022-12-18T03:00:00;36.30;;;24.83;;
769;SDS011;368;48.698;9.116;2022-12-18T03:02:33;38.78;;;25.33;;
769;SDS011;368;48.698;9.116;2022-12-18T03:05:04;36.47;;;25.08;;
769;SDS011;368;48.698;9.116;2022-12-18T03:07:38;38.58;;;26.20;;
769;SDS011;368;48.698;9.116;2022-12-18T03:10:09;42.83;;;26.38;;
769;SDS011;368;48.698;9.116;2022-12-18T03:12:42;42.97;;;25.52;;
769;SDS011;368;48.698;9.116;2022-12-18T03:15:14;33.55;;;26.70;;
769;SDS011;368;48.698;9.116;2022-12-18T03:17:48;38.80;;;26.45;;
769;SDS011;368;48.698;9.116;2022-12-18T03:20:19;35.95;;;24.42;;
769;SDS011;368;48.698;9.116;2022-12-18T03:22:51;37.25;;;26.05;;
769;SDS011;368;48.698;9.116;2022-12-18T03:25:20;36.13;;;23.88;;
769;SDS011;368;48.698;9.116;2022-12-18T03:27:51;40.15;;;25.40;;
769;SDS011;368;48.698;9.116;2022-12-18T03:30:22;39.70;;;27.65;;
769;SDS011;368;48.698;9.116;2022-12-18T03:32:52;44.42;;;27.20;;
769;SDS011;368;48.698;9.116;2022-12-18T03:35:24;45.20;;;28.55;;
769;SDS011;368;48.698;9.116;2022-12-18T03:37:55;38.13;;;26.05;;
769;SDS011;368;48.698;9.116;2022-12-18T03:40:23;37.50;;;26.95;;
769;SDS011;368;48.698;9.116;2022-12-18T03:42:59;40.05;;;26.60;;
769;SDS011;368;48.698;9.116;2022-12-18T03:45:35;41.03;;;27.63;;
769;SDS011;368;48.698;9.116;2022-12-18T03:48:08;44.33;;;29.98;;
769;SDS011;368;48.698;9.116;2022-12-18T03:50:43;42.17;;;30.00;;
769;SDS011;368;48.698;9.116;2022-12-18T03:53:17;41.58;;;28.95;;
769;SDS011;368;48.698;9.116;2022-12-18T03:55:49;43.47;;;28.15;;
769;SDS011;368;48.698;9.116;2022-12-18T03:58:19;46.38;;;29.23;;
769;SDS011;368;48.698;9.116;2022-12-18T04:00:50;39.15;;;28.13;;
769;SDS011;368;48.698;9.116;2022-12-18T04:03:20;46.97;;;31.92;;
769;SDS011;368;48.698;9.116;2022-12-18T04:05:49;43.67;;;29.33;;
769;SDS011;368;48.698;9.116;2022-12-18T04:08:18;39.03;;;27.05;;
769;SDS011;368;48.698;9.116;2022-12-18T04:10:46;43.88;;;27.35;;
769;SDS011;368;48.698;9.116;2022-12-18T04:13:22;37.58;;;25.90;;
769;SDS011;368;48.698;9.116;2022-12-18T04:15:50;44.40;;;27.17;;
769;SDS011;368;48.698;9.116;2022-12-18T04:18:18;40.55;;;26.90;;
769;SDS011;368;48.698;9.116;2022-12-18T04:20:45;38.63;;;26.20;;
769;SDS011;368;48.698;9.116;2022-12-18T04:23:12;31.67;;;23.60;;
769;SDS011;368;48.698;9.116;2022-12-18T04:25:39;36.92;;;25.92;;
769;SDS011;368;48.698;9.116;2022-12-18T04:28:06;39.72;;;26.05;;
769;SDS011;368;48.698;9.116;2022-12-18T04:30:34;37.15;;;26.00;;
769;SDS011;368;48.698;9.116;2022-12-18T04:33:00;38.28;;;25.65;;
769;SDS011;368;48.698;9.116;2022-12-18T04:35:27;38.58;;;26.35;;
769;SDS011;368;48.698;9.116;2022-12-18T04:37:54;42.55;;;28.00;;
769;SDS011;368;48.698;9.116;2022-12-18T04:40:21;36.97;;;25.67;;
769;SDS011;368;48.698;9.116;2022-12-18T04:42:48;39.35;;;26.92;;
769;SDS011;368;48.698;9.116;2022-12-18T04:45:15;38.30;;;26.35;;
769;SDS011;368;48.698;9.116;2022-12-18T04:47:43;39.45;;;26.20;;
769;SDS011;368;48.698;9.116;2022-12-18T04:50:10;39.08;;;26.27;;
769;SDS011;368;48.698;9.116;2022-12-18T04:52:37;39.55;;;25.85;;
769;SDS011;368;48.698;9.116;2022-12-18T04:55:04;37.22;;;24.75;;
769;SDS011;368;48.698;9.116;2022-12-18T04:57:31;35.13;;;24.48;;
769;SDS011;368;48.698;9.116;2022-12-18T04:59:58;32.78;;;24.23;;
769;SDS011;368;48.698;9.116;2022-12-18T05:02:25;37.13;;;25.08;;
769;SDS011;368;48.698;9.116;2022-12-18T05:04:53;37.65;;;23.90;;
769;SDS011;368;48.698;9.116;2022-12-18T05:07:20;37.08;;;24.63;;
769;SDS011;368;48.698;9.116;2022-12-18T05:09:46;35.95;;;25.25;;
769;SDS011;368;48.698;9.116;2022-12-18T05:12:13;41.25;;;25.95;;
769;SDS011;368;48.698;9.116;2022-12-18T05:14:40;35.50;;;26.00;;
769;SDS011;368;48.698;9.116;2022-12-18T05:17:07;37.35;;;25.23;;
769;SDS011;368;48.698;9.116;2022-12-18T05:19:34;37.88;;;25.70;;
769;SDS011;368;48.698;9.116;2022-12-18T05:22:02;40.85;;;26.08;;
769;SDS011;368;48.698;9.116;2022-12-18T05:24:28;41.30;;;26.15;;
769;SDS011;368;48.698;9.116;2022-12-18T05:26:55;36.65;;;25.70;;
769;SDS011;368;48.698;9.116;2022-12-18T05:29:22;43.97;;;28.77;;
769;SDS011;368;48.698;9.116;2022-12-18T05:31:49;35.45;;;26.65;;
769;SDS011;368;48.698;9.116;2022-12-18T05:34:16;40.17;;;26.85;;
769;SDS011;368;48.698;9.116;2022-12-18T05:36:43;35.70;;;25.17;;
769;SDS011;368;48.698;9.116;2022-12-18T05:39:11;37.50;;;24.40;;
769;SDS011;368;48.698;9.116;2022-12-18T05:41:38;37.67;;;27.30;;
769;SDS011;368;48.698;9.116;2022-12-18T05:44:04;40.22;;;27.95;;
769;SDS011;368;48.698;9.116;2022-12-18T05:46:31;38.20;;;26.20;;
769;SDS011;368;48.698;9.116;2022-12-18T05:48:58;48.38;;;36.85;;
769;SDS011;368;48.698;9.116;2022-12-18T05:51:26;45.55;;;31.90;;
769;SDS011;368;48.698;9.116;2022-12-18T05:53:53;45.90;;;31.15;;
769;SDS011;368;48.698;9.116;2022-12-18T05:56:22;39.92;;;29.90;;
769;SDS011;368;48.698;9.116;2022-12-18T05:58:51;40.67;;;27.40;;
769;SDS011;368;48.698;9.116;2022-12-18T06:01:19;48.03;;;32.90;;
769;SDS011;368;48.698;9.116;2022-12-18T06:03:47;45.17;;;30.98;;
769;SDS011;368;48.698;9.116;2022-12-18T06:06:14;50.13;;;33.03;;
769;SDS011;368;48.698;9.116;2022-12-18T06:08:42;44.30;;;31.45;;
769;SDS011;368;48.698;9.116;2022-12-18T06:11:09;74.00;;;50.20;;
769;SDS011;368;48.698;9.116;2022-12-18T06:13:37;63.85;;;45.38;;
769;SDS011;368;48.698;9.116;2022-12-18T06:16:05;55.47;;;38.40;;
769;SDS011;368;48.698;9.116;2022-12-18T06:18:32;50.13;;;35.53;;
769;SDS011;368;48.698;9.116;2022-12-18T06:20:59;53.70;;;37.50;;
769;SDS011;368;48.698;9.116;2022-12-18T06:23:26;50.65;;;36.55;;
769;SDS011;368;48.698;9.116;2022-12-18T06:25:54;41.92;;;30.85;;
769;SDS011;368;48.698;9.116;2022-12-18T06:28:21;51.65;;;40.63;;
769;SDS011;368;48.698;9.116;2022-12-18T06:30:49;43.03;;;32.42;;
769;SDS011;368;48.698;9.116;2022-12-18T06:33:16;39.50;;;26.98;;
769;SDS011;368;48.698;9.116;2022-12-18T06:35:43;41.53;;;28.60;;
769;SDS011;368;48.698;9.116;2022-12-18T06:38:10;39.70;;;27.35;;
769;SDS011;368;48.698;9.116;2022-12-18T06:40:37;35.35;;;26.42;;
769;SDS011;368;48.698;9.116;2022-12-18T06:43:04;34.65;;;27.77;;
769;SDS011;368;48.698;9.116;2022-12-18T06:45:31;39.22;;;26.45;;
769;SDS011;368;48.698;9.116;2022-12-18T06:47:59;35.15;;;23.92;;
769;SDS011;368;48.698;9.116;2022-12-18T06:50:26;36.33;;;26.67;;
769;SDS011;368;48.698;9.116;2022-12-18T06:52:53;31.63;;;24.67;;
769;SDS011;368;48.698;9.116;2022-12-18T06:55:20;33.45;;;24.08;;
769;SDS011;368;48.698;9.116;2022-12-18T06:57:47;32.53;;;25.38;;
769;SDS011;368;48.698;9.116;2022-12-18T07:00:14;31.42;;;24.08;;
769;SDS011;368;48.698;9.116;2022-12-18T07:02:41;33.63;;;24.65;;
769;SDS011;368;48.698;9.116;2022-12-18T07:05:09;30.73;;;24.73;;
769;SDS011;368;48.698;9.116;2022-12-18T07:07:36;43.47;;;31.75;;
769;SDS011;368;48.698;9.116;2022-12-18T07:10:03;38.22;;;25.45;;
769;SDS011;368;48.698;9.116;2022-12-18T07:12:30;48.70;;;36.22;;
769;SDS011;368;48.698;9.116;2022-12-18T07:14:57;48.65;;;36.55;;
769;SDS011;368;48.698;9.116;2022-12-18T07:17:24;50.70;;;38.58;;
769;SDS011;368;48.698;9.116;2022-12-18T07:19:51;44.70;;;31.38;;
769;SDS011;368;48.698;9.116;2022-12-18T07:22:19;38.60;;;31.00;;
769;SDS011;368;48.698;9.116;2022-12-18T07:24:46;38.53;;;29.50;;
769;SDS011;368;48.698;9.116;2022-12-18T07:27:16;41.17;;;29.45;;
769;SDS011;368;48.698;9.116;2022-12-18T07:29:43;35.08;;;25.08;;
769;SDS011;368;48.698;9.116;2022-12-18T07:32:09;34.95;;;26.30;;
769;SDS011;368;48.698;9.116;2022-12-18T07:34:36;71.70;;;39.30;;
769;SDS011;368;48.698;9.116;2022-12-18T07:37:03;80.55;;;42.75;;
769;SDS011;368;48.698;9.116;2022-12-18T07:39:31;59.00;;;37.25;;
769;SDS011;368;48.698;9.116;2022-12-18T07:41:58;51.05;;;32.30;;
769;SDS011;368;48.698;9.116;2022-12-18T07:44:42;41.88;;;26.55;;
769;SDS011;368;48.698;9.116;2022-12-18T07:47:09;43.10;;;26.98;;
769;SDS011;368;48.698;9.116;2022-12-18T07:49:36;37.00;;;24.60;;
769;SDS011;368;48.698;9.116;2022-12-18T07:52:03;44.40;;;27.80;;
769;SDS011;368;48.698;9.116;2022-12-18T07:54:31;39.45;;;27.17;;
769;SDS011;368;48.698;9.116;2022-12-18T07:56:59;38.78;;;25.73;;
769;SDS011;368;48.698;9.116;2022-12-18T07:59:26;41.78;;;26.27;;
769;SDS011;368;48.698;9.116;2022-12-18T08:01:52;34.85;;;23.33;;
769;SDS011;368;48.698;9.116;2022-12-18T08:04:19;40.47;;;25.48;;
769;SDS011;368;48.698;9.116;2022-12-18T08:06:46;40.55;;;27.38;;
769;SDS011;368;48.698;9.116;2022-12-18T08:09:13;37.72;;;25.42;;
769;SDS011;368;48.698;9.116;2022-12-18T08:11:41;37.92;;;24.92;;
769;SDS011;368;48.698;9.116;2022-12-18T08:14:08;36.63;;;26.23;;
769;SDS011;368;48.698;9.116;2022-12-18T08:16:36;39.15;;;27.80;;
769;SDS011;368;48.698;9.116;2022-12-18T08:19:03;39.53;;;27.30;;
769;SDS011;368;48.698;9.116;2022-12-18T08:21:30;41.28;;;26.48;;
769;SDS011;368;48.698;9.116;2022-12-18T08:23:57;39.95;;;25.70;;
769;SDS011;368;48.698;9.116;2022-12-18T08:26:26;37.80;;;26.50;;
769;SDS011;368;48.698;9.116;2022-12-18T08:28:56;39.75;;;26.35;;
769;SDS011;368;48.698;9.116;2022-12-18T08:31:23;42.95;;;29.23;;
769;SDS011;368;48.698;9.116;2022-12-18T08:33:52;45.63;;;32.20;;
769;SDS011;368;48.698;9.116;2022-12-18T08:36:20;49.97;;;34.33;;
769;SDS011;368;48.698;9.116;2022-12-18T08:38:47;45.85;;;35.22;;
769;SDS011;368;48.698;9.116;2022-12-18T08:41:14;61.97;;;53.10;;
769;SDS011;368;48.698;9.116;2022-12-18T08:43:43;66.47;;;58.00;;
769;SDS011;368;48.698;9.116;2022-12-18T08:46:32;69.28;;;58.42;;
769;SDS011;368;48.698;9.116;2022-12-18T08:49:00;53.75;;;43.25;;
769;SDS011;368;48.698;9.116;2022-12-18T08:51:27;54.28;;;40.67;;
769;SDS011;368;48.698;9.116;2022-12-18T08:53:54;51.63;;;37.63;;
769;SDS011;368;48.698;9.116;2022-12-18T08:56:21;47.10;;;35.28;;
769;SDS011;368;48.698;9.116;2022-12-18T08:58:50;45.17;;;29.60;;
769;SDS011;368;48.698;9.116;2022-12-18T09:01:17;40.65;;;30.50;;
769;SDS011;368;48.698;9.116;2022-12-18T09:03:49;45.55;;;31.15;;
769;SDS011;368;48.698;9.116;2022-12-18T09:06:17;39.90;;;27.50;;
769;SDS011;368;48.698;9.116;2022-12-18T09:08:44;43.20;;;31.13;;
769;SDS011;368;48.698;9.116;2022-12-18T09:11:13;47.70;;;32.30;;
769;SDS011;368;48.698;9.116;2022-12-18T09:13:44;43.17;;;28.65;;
769;SDS011;368;48.698;9.116;2022-12-18T09:16:11;48.28;;;27.63;;
769;SDS011;368;48.698;9.116;2022-12-18T09:18:38;40.72;;;27.15;;
769;SDS011;368;48.698;9.116;2022-12-18T09:21:11;38.45;;;27.33;;
769;SDS011;368;48.698;9.116;2022-12-18T09:23:39;43.83;;;27.50;;
769;SDS011;368;48.698;9.116;2022-12-18T09:26:06;41.20;;;28.27;;
769;SDS011;368;48.698;9.116;2022-12-18T09:28:33;42.05;;;26.42;;
769;SDS011;368;48.698;9.116;2022-12-18T09:31:03;40.33;;;25.13;;
769;SDS011;368;48.698;9.116;2022-12-18T09:33:32;46.40;;;28.00;;
769;SDS011;368;48.698;9.116;2022-12-18T09:36:00;43.22;;;27.33;;
769;SDS011;368;48.698;9.116;2022-12-18T09:38:29;37.05;;;26.48;;
769;SDS011;368;48.698;9.116;2022-12-18T09:40:56;43.28;;;27.80;;
769;SDS011;368;48.698;9.116;2022-12-18T09:43:26;42.08;;;27.13;;
769;SDS011;368;48.698;9.116;2022-12-18T09:46:00;43.40;;;25.98;;
769;SDS011;368;48.698;9.116;2022-12-18T09:48:30;36.80;;;25.95;;
769;SDS011;368;48.698;9.116;2022-12-18T09:51:01;44.75;;;26.88;;
769;SDS011;368;48.698;9.116;2022-12-18T09:53:34;37.05;;;25.73;;
769;SDS011;368;48.698;9.116;2022-12-18T09:56:05;44.72;;;28.92;;
769;SDS011;368;48.698;9.116;2022-12-18T09:58:34;43.72;;;24.20;;
769;SDS011;368;48.698;9.116;2022-12-18T10:01:07;38.00;;;23.40;;
769;SDS011;368;48.698;9.116;2022-12-18T10:03:37;42.63;;;24.58;;
769;SDS011;368;48.698;9.116;2022-12-18T10:06:05;42.33;;;26.48;;
769;SDS011;368;48.698;9.116;2022-12-18T10:08:42;46.90;;;26.48;;
769;SDS011;368;48.698;9.116;2022-12-18T10:11:19;59.03;;;32.58;;
769;SDS011;368;48.698;9.116;2022-12-18T10:13:54;49.30;;;30.83;;
769;SDS011;368;48.698;9.116;2022-12-18T10:16:25;53.88;;;32.38;;
769;SDS011;368;48.698;9.116;2022-12-18T10:19:01;47.05;;;27.70;;
769;SDS011;368;48.698;9.116;2022-12-18T10:21:36;40.63;;;24.90;;
769;SDS011;368;48.698;9.116;2022-12-18T10:24:14;47.83;;;28.50;;
769;SDS011;368;48.698;9.116;2022-12-18T10:26:48;56.33;;;29.50;;
769;SDS011;368;48.698;9.116;2022-12-18T10:29:15;44.97;;;26.95;;
769;SDS011;368;48.698;9.116;2022-12-18T10:31:43;42.75;;;29.20;;
769;SDS011;368;48.698;9.116;2022-12-18T10:34:10;42.50;;;28.08;;
769;SDS011;368;48.698;9.116;2022-12-18T10:36:37;39.45;;;24.88;;
769;SDS011;368;48.698;9.116;2022-12-18T10:39:15;40.70;;;24.77;;
769;SDS011;368;48.698;9.116;2022-12-18T10:41:43;42.00;;;23.95;;
769;SDS011;368;48.698;9.116;2022-12-18T10:44:12;48.65;;;26.55;;
769;SDS011;368;48.698;9.116;2022-12-18T10:46:43;40.15;;;23.55;;
769;SDS011;368;48.698;9.116;2022-12-18T10:49:18;35.10;;;22.25;;
769;SDS011;368;48.698;9.116;2022-12-18T10:51:48;39.55;;;22.10;;
769;SDS011;368;48.698;9.116;2022-12-18T10:54:17;36.78;;;23.15;;
769;SDS011;368;48.698;9.116;2022-12-18T10:56:48;37.17;;;22.80;;
769;SDS011;368;48.698;9.116;2022-12-18T10:59:15;34.83;;;21.35;;
769;SDS011;368;48.698;9.116;2022-12-18T11:01:48;36.42;;;22.85;;
769;SDS011;368;48.698;9.116;2022-12-18T11:04:16;41.90;;;23.27;;
769;SDS011;368;48.698;9.116;2022-12-18T11:06:52;34.00;;;22.85;;
769;SDS011;368;48.698;9.116;2022-12-18T11:09:23;40.88;;;24.08;;
769;SDS011;368;48.698;9.116;2022-12-18T11:11:51;38.42;;;23.35;;
769;SDS011;368;48.698;9.116;2022-12-18T11:14:21;35.42;;;22.00;;
769;SDS011;368;48.698;9.116;2022-12-18T11:16:50;36.30;;;22.38;;
769;SDS011;368;48.698;9.116;2022-12-18T11:19:28;40.95;;;26.00;;
769;SDS011;368;48.698;9.116;2022-12-18T11:21:59;41.90;;;25.30;;
769;SDS011;368;48.698;9.116;2022-12-18T11:24:28;35.80;;;23.63;;
769;SDS011;368;48.698;9.116;2022-12-18T11:26:57;36.85;;;25.48;;
769;SDS011;368;48.698;9.116;2022-12-18T11:29:30;39.30;;;21.85;;
769;SDS011;368;48.698;9.116;2022-12-18T11:32:18;46.40;;;27.37;;
769;SDS011;368;48.698;9.116;2022-12-18T11:34:57;38.23;;;24.40;;
769;SDS011;368;48.698;9.116;2022-12-18T11:37:29;39.07;;;22.60;;
769;SDS011;368;48.698;9.116;2022-12-18T11:39:59;34.83;;;23.10;;
769;SDS011;368;48.698;9.116;2022-12-18T11:42:35;36.20;;;22.80;;
769;SDS011;368;48.698;9.116;2022-12-18T11:45:08;35.70;;;20.90;;
769;SDS011;368;48.698;9.116;2022-12-18T11:47:55;32.60;;;22.80;;
769;SDS011;368;48.698;9.116;2022-12-18T11:50:26;40.03;;;26.43;;
769;SDS011;368;48.698;9.116;2022-12-18T11:52:58;30.77;;;21.03;;
769;SDS011;368;48.698;9.116;2022-12-18T11:55:35;33.30;;;22.00;;
769;SDS011;368;48.698;9.116;2022-12-18T11:58:08;34.93;;;23.70;;
769;SDS011;368;48.698;9.116;2022-12-18T12:00:43;31.30;;;20.57;;
769;SDS011;368;48.698;9.116;2022-12-18T12:03:21;34.90;;;23.30;;
769;SDS011;368;48.698;9.116;2022-12-18T12:06:03;30.23;;;21.00;;
769;SDS011;368;48.698;9.116;2022-12-18T12:08:42;32.27;;;22.03;;
769;SDS011;368;48.698;9.116;2022-12-18T12:11:21;31.60;;;23.33;;
769;SDS011;368;48.698;9.116;2022-12-18T12:13:58;31.77;;;22.40;;
769;SDS011;368;48.698;9.116;2022-12-18T12:16:41;34.47;;;22.70;;
769;SDS011;368;48.698;9.116;2022-12-18T12:19:20;30.53;;;22.23;;
769;SDS011;368;48.698;9.116;2022-12-18T12:21:58;35.63;;;23.47;;
769;SDS011;368;48.698;9.116;2022-12-18T12:24:36;35.47;;;22.57;;
769;SDS011;368;48.698;9.116;2022-12-18T12:27:16;32.10;;;22.77;;
769;SDS011;368;48.698;9.116;2022-12-18T12:29:53;34.77;;;21.10;;
769;SDS011;368;48.698;9.116;2022-12-18T12:32:33;36.40;;;22.30;;
769;SDS011;368;48.698;9.116;2022-12-18T12:35:21;34.83;;;23.17;;
769;SDS011;368;48.698;9.116;2022-12-18T12:37:58;34.13;;;22.00;;
769;SDS011;368;48.698;9.116;2022-12-18T12:40:34;33.00;;;21.23;;
769;SDS011;368;48.698;9.116;2022-12-18T12:43:12;35.07;;;24.17;;
769;SDS011;368;48.698;9.116;2022-12-18T12:45:54;33.43;;;21.23;;
769;SDS011;368;48.698;9.116;2022-12-18T12:48:31;34.17;;;22.13;;
769;SDS011;368;48.698;9.116;2022-12-18T12:51:03;36.50;;;22.43;;
769;SDS011;368;48.698;9.116;2022-12-18T12:53:35;32.57;;;22.60;;
769;SDS011;368;48.698;9.116;2022-12-18T12:56:04;39.00;;;26.60;;
769;SDS011;368;48.698;9.116;2022-12-18T12:58:36;36.90;;;23.87;;
769;SDS011;368;48.698;9.116;2022-12-18T13:01:13;35.80;;;22.60;;
769;SDS011;368;48.698;9.116;2022-12-18T13:03:51;30.10;;;21.50;;
769;SDS011;368;48.698;9.116;2022-12-18T13:06:25;32.63;;;21.53;;
769;SDS011;368;48.698;9.116;2022-12-18T13:09:03;33.00;;;21.60;;
769;SDS011;368;48.698;9.116;2022-12-18T13:11:31;32.90;;;21.43;;
769;SDS011;368;48.698;9.116;2022-12-18T13:14:30;41.50;;;28.83;;
769;SDS011;368;48.698;9.116;2022-12-18T13:17:14;49.83;;;29.50;;
769;SDS011;368;48.698;9.116;2022-12-18T13:20:02;41.37;;;30.60;;
769;SDS011;368;48.698;9.116;2022-12-18T13:22:33;47.33;;;30.67;;
769;SDS011;368;48.698;9.116;2022-12-18T13:25:01;46.10;;;31.33;;
769;SDS011;368;48.698;9.116;2022-12-18T13:27:46;46.50;;;28.57;;
769;SDS011;368;48.698;9.116;2022-12-18T13:30:43;41.70;;;27.17;;
769;SDS011;368;48.698;9.116;2022-12-18T13:33:37;40.53;;;28.10;;
769;SDS011;368;48.698;9.116;2022-12-18T13:36:12;41.63;;;27.77;;
769;SDS011;368;48.698;9.116;2022-12-18T13:39:10;42.80;;;29.63;;
769;SDS011;368;48.698;9.116;2022-12-18T13:41:52;44.90;;;31.33;;
769;SDS011;368;48.698;9.116;2022-12-18T13:45:00;39.57;;;28.73;;
769;SDS011;368;48.698;9.116;2022-12-18T13:47:31;45.70;;;29.90;;
769;SDS011;368;48.698;9.116;2022-12-18T13:49:59;48.03;;;30.93;;
769;SDS011;368;48.698;9.116;2022-12-18T13:52:27;42.63;;;29.40;;
769;SDS011;368;48.698;9.116;2022-12-18T13:54:59;47.83;;;31.97;;
769;SDS011;368;48.698;9.116;2022-12-18T13:57:31;51.17;;;29.73;;
769;SDS011;368;48.698;9.116;2022-12-18T14:00:14;47.00;;;31.80;;
769;SDS011;368;48.698;9.116;2022-12-18T14:02:51;45.30;;;27.50;;
769;SDS011;368;48.698;9.116;2022-12-18T14:05:21;50.97;;;30.30;;
769;SDS011;368;48.698;9.116;2022-12-18T14:07:48;43.53;;;27.23;;
769;SDS011;368;48.698;9.116;2022-12-18T14:10:16;37.57;;;25.23;;
769;SDS011;368;48.698;9.116;2022-12-18T14:12:44;40.70;;;26.53;;
769;SDS011;368;48.698;9.116;2022-12-18T14:15:26;36.30;;;24.83;;
769;SDS011;368;48.698;9.116;2022-12-18T14:18:00;39.77;;;24.10;;
769;SDS011;368;48.698;9.116;2022-12-18T14:20:29;40.80;;;24.90;;
769;SDS011;368;48.698;9.116;2022-12-18T14:22:58;35.40;;;23.00;;
769;SDS011;368;48.698;9.116;2022-12-18T14:25:26;33.70;;;22.70;;
769;SDS011;368;48.698;9.116;2022-12-18T14:28:01;41.87;;;24.10;;
769;SDS011;368;48.698;9.116;2022-12-18T14:30:35;34.80;;;22.00;;
769;SDS011;368;48.698;9.116;2022-12-18T14:33:05;35.73;;;22.50;;
769;SDS011;368;48.698;9.116;2022-12-18T14:35:36;35.40;;;22.60;;
769;SDS011;368;48.698;9.116;2022-12-18T14:38:14;34.67;;;22.47;;
769;SDS011;368;48.698;9.116;2022-12-18T14:40:47;35.15;;;22.40;;
769;SDS011;368;48.698;9.116;2022-12-18T14:43:14;35.65;;;23.55;;
769;SDS011;368;48.698;9.116;2022-12-18T14:45:41;43.22;;;24.27;;
769;SDS011;368;48.698;9.116;2022-12-18T14:48:13;38.35;;;23.75;;
769;SDS011;368;48.698;9.116;2022-12-18T14:50:42;43.38;;;26.15;;
769;SDS011;368;48.698;9.116;2022-12-18T14:53:20;41.47;;;25.35;;
769;SDS011;368;48.698;9.116;2022-12-18T14:55:49;38.15;;;23.83;;
769;SDS011;368;48.698;9.116;2022-12-18T14:58:16;46.60;;;24.48;;
769;SDS011;368;48.698;9.116;2022-12-18T15:00:44;43.28;;;24.73;;
769;SDS011;368;48.698;9.116;2022-12-18T15:03:13;43.63;;;24.27;;
769;SDS011;368;48.698;9.116;2022-12-18T15:05:45;40.08;;;25.30;;
769;SDS011;368;48.698;9.116;2022-12-18T15:08:29;39.35;;;24.85;;
769;SDS011;368;48.698;9.116;2022-12-18T15:11:00;37.38;;;23.60;;
769;SDS011;368;48.698;9.116;2022-12-18T15:13:27;43.28;;;25.25;;
769;SDS011;368;48.698;9.116;2022-12-18T15:15:54;44.90;;;26.63;;
769;SDS011;368;48.698;9.116;2022-12-18T15:18:27;41.20;;;25.02;;
769;SDS011;368;48.698;9.116;2022-12-18T15:20:58;41.75;;;25.42;;
769;SDS011;368;48.698;9.116;2022-12-18T15:23:34;48.80;;;26.92;;
769;SDS011;368;48.698;9.116;2022-12-18T15:26:03;42.67;;;27.20;;
769;SDS011;368;48.698;9.116;2022-12-18T15:28:32;49.38;;;30.50;;
769;SDS011;368;48.698;9.116;2022-12-18T15:31:06;47.47;;;28.85;;
769;SDS011;368;48.698;9.116;2022-12-18T15:36:47;43.38;;;28.25;;
769;SDS011;368;48.698;9.116;2022-12-18T15:39:14;45.50;;;29.65;;
769;SDS011;368;48.698;9.116;2022-12-18T15:41:40;52.22;;;30.40;;
769;SDS011;368;48.698;9.116;2022-12-18T15:44:28;48.88;;;30.10;;